sensor_id;sensor_type;location;lat;lon;timestamp;temperature;humidity
14786;DHT22;7484;49.906;9.058;2023-07-13T19:25:45;23.70;1.00
14786;DHT22;7484;49.906;9.058;2023-07-13T19:28:25;23.80;1.00
14786;DHT22;7484;49.906;9.058;2023-07-13T19:30:52;23.50;1.00
14786;DHT22;7484;49.906;9.058;2023-07-13T19:33:19;23.30;1.00
14786;DHT22;7484;49.906;9.058;2023-07-13T19:35:48;22.90;1.00
14786;DHT22;7484;49.906;9.058;2023-07-13T19:38:19;22.50;85.60
14786;DHT22;7484;49.906;9.058;2023-07-13T19:40:48;22.20;99.90
14786;DHT22;7484;49.906;9.058;2023-07-13T19:43:15;22.00;99.90
14786;DHT22;7484;49.906;9.058;2023-07-13T19:45:42;21.70;99.90
14786;DHT22;7484;49.906;9.058;2023-07-13T19:48:09;21.30;99.90
14786;DHT22;7484;49.906;9.058;2023-07-13T19:50:37;21.10;99.90
14786;DHT22;7484;49.906;9.058;2023-07-13T19:53:16;21.00;99.90
14786;DHT22;7484;49.906;9.058;2023-07-13T19:55:45;20.80;1.00
14786;DHT22;7484;49.906;9.058;2023-07-13T19:58:13;20.60;1.00
14786;DHT22;7484;49.906;9.058;2023-07-13T20:00:40;20.50;1.00
14786;DHT22;7484;49.906;9.058;2023-07-13T20:03:07;20.40;1.00
14786;DHT22;7484;49.906;9.058;2023-07-13T20:05:34;20.50;1.00
14786;DHT22;7484;49.906;9.058;2023-07-13T20:08:11;20.30;1.00
14786;DHT22;7484;49.906;9.058;2023-07-13T20:10:40;20.20;1.00
14786;DHT22;7484;49.906;9.058;2023-07-13T20:13:12;20.00;1.00
14786;DHT22;7484;49.906;9.058;2023-07-13T20:15:41;19.90;1.00
14786;DHT22;7484;49.906;9.058;2023-07-13T20:18:12;20.00;1.00
14786;DHT22;7484;49.906;9.058;2023-07-13T20:20:40;20.00;1.00
14786;DHT22;7484;49.906;9.058;2023-07-13T20:23:14;20.00;1.00
14786;DHT22;7484;49.906;9.058;2023-07-13T20:25:42;20.00;1.00
14786;DHT22;7484;49.906;9.058;2023-07-13T20:28:09;19.90;1.00
14786;DHT22;7484;49.906;9.058;2023-07-13T20:30:39;19.70;1.00
14786;DHT22;7484;49.906;9.058;2023-07-13T20:33:12;19.70;1.00
14786;DHT22;7484;49.906;9.058;2023-07-13T20:35:39;19.70;1.00
14786;DHT22;7484;49.906;9.058;2023-07-13T20:38:13;19.70;24.50
14786;DHT22;7484;49.906;9.058;2023-07-13T20:40:40;19.60;99.90
14786;DHT22;7484;49.906;9.058;2023-07-13T20:43:08;19.50;99.90
14786;DHT22;7484;49.906;9.058;2023-07-13T20:45:36;19.50;99.90
14786;DHT22;7484;49.906;9.058;2023-07-13T20:48:22;19.50;99.90
14786;DHT22;7484;49.906;9.058;2023-07-13T20:50:51;19.40;99.90
14786;DHT22;7484;49.906;9.058;2023-07-13T20:53:23;19.30;1.00
14786;DHT22;7484;49.906;9.058;2023-07-13T20:55:50;19.20;1.00
14786;DHT22;7484;49.906;9.058;2023-07-13T20:58:17;19.10;1.00
14786;DHT22;7484;49.906;9.058;2023-07-13T21:00:44;19.00;1.00
14786;DHT22;7484;49.906;9.058;2023-07-13T21:03:17;18.90;99.90
14786;DHT22;7484;49.906;9.058;2023-07-13T21:05:45;18.90;99.90
14786;DHT22;7484;49.906;9.058;2023-07-13T21:08:14;18.90;99.90
14786;DHT22;7484;49.906;9.058;2023-07-13T21:10:43;19.20;1.00
14786;DHT22;7484;49.906;9.058;2023-07-13T21:13:11;19.50;1.00
14786;DHT22;7484;49.906;9.058;2023-07-13T21:15:40;19.70;1.00
14786;DHT22;7484;49.906;9.058;2023-07-13T21:18:15;19.80;1.00
14786;DHT22;7484;49.906;9.058;2023-07-13T21:20:46;19.80;1.00
14786;DHT22;7484;49.906;9.058;2023-07-13T21:23:26;19.70;1.00
14786;DHT22;7484;49.906;9.058;2023-07-13T21:25:54;19.60;1.00
14786;DHT22;7484;49.906;9.058;2023-07-13T21:28:22;19.30;1.00
14786;DHT22;7484;49.906;9.058;2023-07-13T21:30:51;19.20;1.00
14786;DHT22;7484;49.906;9.058;2023-07-13T21:33:19;19.20;1.00
14786;DHT22;7484;49.906;9.058;2023-07-13T21:35:47;19.20;1.00
14786;DHT22;7484;49.906;9.058;2023-07-13T21:38:18;19.10;1.00
14786;DHT22;7484;49.906;9.058;2023-07-13T21:40:47;19.10;88.50
14786;DHT22;7484;49.906;9.058;2023-07-13T21:43:16;19.30;1.00
14786;DHT22;7484;49.906;9.058;2023-07-13T21:45:43;19.50;1.00
14786;DHT22;7484;49.906;9.058;2023-07-13T21:48:10;19.60;1.00
14786;DHT22;7484;49.906;9.058;2023-07-13T21:50:39;19.60;99.90
14786;DHT22;7484;49.906;9.058;2023-07-13T21:53:14;19.40;99.90
14786;DHT22;7484;49.906;9.058;2023-07-13T21:55:43;19.20;1.00
14786;DHT22;7484;49.906;9.058;2023-07-13T21:58:14;19.20;1.00
14786;DHT22;7484;49.906;9.058;2023-07-13T22:00:43;19.20;1.00
14786;DHT22;7484;49.906;9.058;2023-07-13T22:03:23;19.30;1.00
14786;DHT22;7484;49.906;9.058;2023-07-13T22:05:51;19.40;1.00
14786;DHT22;7484;49.906;9.058;2023-07-13T22:08:18;19.50;1.00
14786;DHT22;7484;49.906;9.058;2023-07-13T22:10:47;19.60;99.90
14786;DHT22;7484;49.906;9.058;2023-07-13T22:13:14;19.30;1.00
14786;DHT22;7484;49.906;9.058;2023-07-13T22:15:43;19.10;1.00
14786;DHT22;7484;49.906;9.058;2023-07-13T22:18:14;19.00;1.00
14786;DHT22;7484;49.906;9.058;2023-07-13T22:20:41;18.90;66.00
14786;DHT22;7484;49.906;9.058;2023-07-13T22:23:16;18.70;99.90
14786;DHT22;7484;49.906;9.058;2023-07-13T22:25:45;18.70;99.90
14786;DHT22;7484;49.906;9.058;2023-07-13T22:28:14;18.80;99.90
14786;DHT22;7484;49.906;9.058;2023-07-13T22:30:42;18.70;99.90
14786;DHT22;7484;49.906;9.058;2023-07-13T22:33:12;18.80;99.90
14786;DHT22;7484;49.906;9.058;2023-07-13T22:35:40;18.80;99.90
14786;DHT22;7484;49.906;9.058;2023-07-13T22:38:12;18.90;1.00
14786;DHT22;7484;49.906;9.058;2023-07-13T22:40:39;19.00;31.50
14786;DHT22;7484;49.906;9.058;2023-07-13T22:43:16;19.00;23.00
14786;DHT22;7484;49.906;9.058;2023-07-13T22:45:45;19.00;45.90
14786;DHT22;7484;49.906;9.058;2023-07-13T22:48:15;19.00;1.00
14786;DHT22;7484;49.906;9.058;2023-07-13T22:50:43;18.80;69.40
14786;DHT22;7484;49.906;9.058;2023-07-13T22:53:17;18.50;1.00
14786;DHT22;7484;49.906;9.058;2023-07-13T22:55:46;18.20;1.00
14786;DHT22;7484;49.906;9.058;2023-07-13T22:58:13;18.20;1.00
14786;DHT22;7484;49.906;9.058;2023-07-13T23:00:40;18.40;1.00
14786;DHT22;7484;49.906;9.058;2023-07-13T23:03:11;18.90;99.90
14786;DHT22;7484;49.906;9.058;2023-07-13T23:05:39;18.50;99.90
14786;DHT22;7484;49.906;9.058;2023-07-13T23:08:09;18.60;99.90
14786;DHT22;7484;49.906;9.058;2023-07-13T23:10:37;18.60;99.90
14786;DHT22;7484;49.906;9.058;2023-07-13T23:13:04;18.30;1.00
14786;DHT22;7484;49.906;9.058;2023-07-13T23:15:31;17.80;1.00
14786;DHT22;7484;49.906;9.058;2023-07-13T23:17:59;17.50;99.90
14786;DHT22;7484;49.906;9.058;2023-07-13T23:20:31;17.40;1.00
14786;DHT22;7484;49.906;9.058;2023-07-13T23:22:59;17.50;99.90
14786;DHT22;7484;49.906;9.058;2023-07-13T23:25:28;17.60;99.90
14786;DHT22;7484;49.906;9.058;2023-07-13T23:27:58;17.70;99.90
14786;DHT22;7484;49.906;9.058;2023-07-13T23:30:28;17.70;44.90
14786;DHT22;7484;49.906;9.058;2023-07-13T23:32:59;17.80;1.00
14786;DHT22;7484;49.906;9.058;2023-07-13T23:35:29;17.70;99.90
14786;DHT22;7484;49.906;9.058;2023-07-13T23:37:58;17.80;99.90
14786;DHT22;7484;49.906;9.058;2023-07-13T23:40:26;17.80;50.50
14786;DHT22;7484;49.906;9.058;2023-07-13T23:42:53;18.30;1.00
14786;DHT22;7484;49.906;9.058;2023-07-13T23:45:23;17.90;99.90
14786;DHT22;7484;49.906;9.058;2023-07-13T23:47:54;18.00;1.00
14786;DHT22;7484;49.906;9.058;2023-07-13T23:50:23;18.00;1.00
14786;DHT22;7484;49.906;9.058;2023-07-13T23:52:52;17.90;1.00
14786;DHT22;7484;49.906;9.058;2023-07-13T23:55:24;17.90;1.00
14786;DHT22;7484;49.906;9.058;2023-07-13T23:57:52;17.90;1.00
